This is the latest recevied weather packets stored in our database for station/object WX7FGZ-6. If no packets are shown the sender has not sent any weather packets the latest 10 day(s).
| Time | Temp. | Humidity | Pressure | Rain* | Wind** | Luminosity | Snow |
|---|---|---|---|---|---|---|---|
| 1777169173 | -2.22° C | 69% | 1011.6 hPa | 0 mm | - | - | - |
| 1777168874 | -1.67° C | 69% | 1011.6 hPa | 0 mm | - | - | - |
| 1777168744 | -1.67° C | 69% | 1011.6 hPa | 0 mm | - | - | - |
| 1777168574 | -1.67° C | 69% | 1011.6 hPa | 0 mm | - | - | - |
| 1777167987 | -1.67° C | 69% | 1011.6 hPa | 0 mm | - | - | - |
| 1777167686 | -1.67° C | 69% | 1011.6 hPa | 0 mm | - | - | - |
| 1777167385 | -1.67° C | 68% | 1011.8 hPa | 0 mm | - | - | - |
| 1777167085 | -1.11° C | 67% | 1011.6 hPa | 0 mm | - | - | - |
| 1777166881 | -1.11° C | 66% | 1011.9 hPa | 0 mm | - | - | - |
| 1777166785 | -1.11° C | 66% | 1011.9 hPa | 0 mm | - | - | - |
| 1777166485 | -1.11° C | 66% | 1011.8 hPa | 0 mm | - | - | - |
| 1777166185 | -0.56° C | 64% | 1011.7 hPa | 0 mm | - | - | - |
| 1777165713 | -0.56° C | 63% | 1011.6 hPa | 0 mm | - | - | - |
| 1777165285 | 0° C | 60% | 1011.9 hPa | 0 mm | - | - | - |
| 1777164861 | 0.56° C | 58% | 1011.7 hPa | 0 mm | - | - | - |
| 1777164670 | 0.56° C | 58% | 1011.7 hPa | 0 mm | - | - | - |
| 1777164525 | 1.11° C | 59% | 1011.9 hPa | 0 mm | - | - | - |
| 1777163770 | 0° C | 60% | 1012.4 hPa | 0 mm | - | - | - |
| 1777163472 | 0° C | 61% | 1012.5 hPa | 0 mm | - | - | - |
| 1777161754 | -1.11° C | 72% | 1012 hPa | 0 mm | - | - | - |
* Rain latest hour (hover to see other rain measurements)
** Current wind speed in m/s (hover to see current wind gust speed)